createdAt,value
2023-03-04T00:01:15.842Z,1.30
2023-03-04T00:04:17.938Z,1.48
2023-03-04T00:07:20.135Z,1.20
2023-03-04T00:10:21.576Z,1.30
2023-03-04T00:13:24.151Z,1.48
2023-03-04T00:16:29.076Z,1.20
2023-03-04T00:19:31.497Z,1.20
2023-03-04T00:22:32.967Z,1.27
2023-03-04T00:25:34.507Z,1.40
2023-03-04T00:28:36.351Z,1.00
2023-03-04T00:31:38.052Z,1.20
2023-03-04T00:34:40.542Z,1.33
2023-03-04T00:37:42.348Z,1.20
2023-03-04T00:40:44.684Z,1.27
2023-03-04T00:43:46.177Z,1.10
2023-03-04T00:46:47.661Z,1.35
2023-03-04T00:49:49.200Z,1.15
2023-03-04T00:52:50.817Z,1.20
2023-03-04T00:55:52.291Z,1.23
2023-03-04T00:58:53.858Z,1.25
2023-03-04T01:01:55.400Z,1.35
2023-03-04T01:04:56.944Z,1.23
2023-03-04T01:07:58.424Z,1.30
2023-03-04T01:10:59.902Z,1.20
2023-03-04T01:14:02.265Z,1.10
2023-03-04T01:17:05.042Z,1.27
2023-03-04T01:20:07.788Z,1.20
2023-03-04T01:23:10.379Z,1.30
2023-03-04T01:26:11.889Z,1.30
2023-03-04T01:29:13.386Z,1.30
2023-03-04T01:32:15.422Z,1.10
2023-03-04T01:35:16.901Z,1.55
2023-03-04T01:38:18.456Z,1.23
2023-03-04T01:41:24.860Z,1.00
2023-03-04T01:44:26.736Z,1.25
2023-03-04T01:47:31.059Z,1.10
2023-03-04T01:50:35.541Z,1.20
2023-03-04T01:53:37.052Z,1.20
2023-03-04T01:56:39.946Z,1.10
2023-03-04T01:59:41.842Z,1.15
2023-03-04T02:02:43.425Z,1.15
2023-03-04T02:05:48.556Z,1.00
2023-03-04T02:08:50.077Z,1.10
2023-03-04T02:11:52.318Z,1.10
2023-03-04T02:14:53.850Z,1.20
2023-03-04T02:17:55.680Z,1.05
2023-03-04T02:21:00.138Z,1.13
2023-03-04T02:24:30.578Z,0.93
2023-03-04T02:27:32.150Z,1.30
2023-03-04T02:30:35.068Z,0.85
2023-03-04T02:33:36.626Z,1.00
2023-03-04T02:36:39.750Z,1.40
2023-03-04T02:39:46.790Z,1.15
2023-03-04T02:42:48.298Z,1.10
2023-03-04T02:45:50.695Z,1.10
2023-03-04T02:48:53.048Z,1.17
2023-03-04T02:52:05.496Z,1.13
2023-03-04T02:55:07.526Z,1.10
2023-03-04T02:58:10.934Z,1.10
2023-03-04T03:01:12.640Z,1.00
2023-03-04T03:04:14.896Z,1.00
2023-03-04T03:07:18.988Z,0.90
2023-03-04T03:10:21.317Z,1.02
2023-03-04T03:13:23.125Z,1.20
2023-03-04T03:16:25.180Z,1.00
2023-03-04T03:19:26.788Z,1.00
2023-03-04T03:22:29.094Z,0.88
2023-03-04T03:25:30.640Z,1.10
2023-03-04T03:28:32.494Z,0.98
2023-03-04T03:31:35.092Z,1.00
2023-03-04T03:34:36.661Z,0.90
2023-03-04T03:37:38.453Z,0.90
2023-03-04T03:40:39.967Z,1.00
2023-03-04T03:43:41.434Z,0.90
2023-03-04T03:46:43.106Z,0.98
2023-03-04T03:49:44.587Z,0.98
2023-03-04T03:52:46.195Z,1.08
2023-03-04T03:55:47.669Z,0.90
2023-03-04T03:58:49.194Z,1.05
2023-03-04T04:01:50.885Z,0.80
2023-03-04T04:04:52.491Z,1.13
2023-03-04T04:07:54.357Z,0.93
2023-03-04T04:10:55.883Z,0.90
2023-03-04T04:13:57.388Z,0.90
2023-03-04T04:16:59.031Z,1.10
2023-03-04T04:20:00.664Z,0.80
2023-03-04T04:23:03.514Z,0.90
2023-03-04T04:26:05.152Z,0.93
2023-03-04T04:29:06.657Z,0.90
2023-03-04T04:32:08.955Z,0.80
2023-03-04T04:35:10.798Z,1.00
2023-03-04T04:38:12.381Z,1.05
2023-03-04T04:41:23.600Z,0.90
2023-03-04T04:44:25.112Z,0.90
2023-03-04T04:47:26.628Z,0.90
2023-03-04T04:50:28.130Z,1.00
2023-03-04T04:53:29.654Z,0.90
2023-03-04T04:56:31.520Z,0.80
2023-03-04T04:59:32.991Z,0.90
2023-03-04T05:02:37.370Z,0.90
2023-03-04T05:05:38.852Z,0.70
2023-03-04T05:08:40.451Z,0.90
2023-03-04T05:11:41.976Z,0.80
2023-03-04T05:14:43.472Z,0.80
2023-03-04T05:17:44.965Z,0.80
2023-03-04T05:20:50.898Z,0.90
2023-03-04T05:23:52.430Z,1.00
2023-03-04T05:26:53.964Z,0.82
2023-03-04T05:29:59.677Z,0.90
2023-03-04T05:33:01.140Z,0.90
2023-03-04T05:36:05.010Z,0.70
2023-03-04T05:39:06.505Z,0.80
2023-03-04T05:42:08.061Z,0.70
2023-03-04T05:45:09.918Z,0.88
2023-03-04T05:48:11.416Z,0.90
2023-03-04T05:51:13.010Z,0.80
2023-03-04T05:54:14.726Z,0.80
2023-03-04T05:57:16.238Z,0.80
2023-03-04T06:00:18.088Z,0.70
2023-03-04T06:03:21.871Z,0.80
2023-03-04T06:06:23.546Z,0.80
2023-03-04T06:09:25.311Z,1.00
2023-03-04T06:12:28.688Z,0.90
2023-03-04T06:15:30.775Z,0.70
2023-03-04T06:18:32.354Z,0.70
2023-03-04T06:21:33.817Z,0.68
2023-03-04T06:24:35.587Z,0.85
2023-03-04T06:27:37.173Z,0.60
2023-03-04T06:30:38.735Z,0.90
2023-03-04T06:33:40.276Z,0.70
2023-03-04T06:36:41.763Z,0.60
2023-03-04T06:39:43.375Z,0.70
2023-03-04T06:42:44.864Z,0.70
2023-03-04T06:45:46.750Z,0.70
2023-03-04T06:48:48.280Z,0.60
2023-03-04T06:51:49.764Z,0.70
2023-03-04T06:54:51.285Z,0.80
2023-03-04T06:57:52.830Z,0.70
2023-03-04T07:00:54.380Z,0.70
2023-03-04T07:03:56.970Z,0.73
2023-03-04T07:06:58.515Z,0.70
2023-03-04T07:10:00.256Z,0.50
2023-03-04T07:13:01.975Z,0.70
2023-03-04T07:16:05.047Z,0.68
2023-03-04T07:19:06.619Z,0.80
2023-03-04T07:22:08.133Z,0.70
2023-03-04T07:25:10.073Z,0.75
2023-03-04T07:28:11.799Z,0.80
2023-03-04T07:31:24.412Z,0.70
2023-03-04T07:34:26.005Z,0.77
2023-03-04T07:37:27.521Z,0.77
2023-03-04T07:40:29.109Z,0.80
2023-03-04T07:43:30.719Z,0.70
2023-03-04T07:46:32.311Z,0.80
2023-03-04T07:49:33.799Z,0.70
2023-03-04T07:52:41.337Z,0.60
2023-03-04T07:55:42.843Z,0.60
2023-03-04T07:58:45.065Z,1.00
2023-03-04T08:01:46.539Z,0.60
2023-03-04T08:04:48.004Z,0.70
2023-03-04T08:07:49.474Z,0.75
2023-03-04T08:10:50.962Z,0.52
2023-03-04T08:13:54.199Z,1.02
2023-03-04T08:16:55.790Z,0.85
2023-03-04T08:19:57.330Z,0.80
2023-03-04T08:22:58.807Z,0.70
2023-03-04T08:26:00.282Z,0.50
2023-03-04T08:29:05.303Z,0.70
2023-03-04T08:32:06.846Z,0.80
2023-03-04T08:35:08.387Z,0.70
2023-03-04T08:38:09.858Z,0.90
2023-03-04T08:41:12.504Z,0.70
2023-03-04T08:44:14.541Z,0.80
2023-03-04T08:47:16.531Z,0.55
2023-03-04T08:50:18.090Z,0.63
2023-03-04T08:53:20.680Z,0.60
2023-03-04T08:56:22.443Z,0.70
2023-03-04T08:59:24.122Z,0.60
2023-03-04T09:02:25.653Z,0.75
2023-03-04T09:05:27.196Z,0.60
2023-03-04T09:08:29.482Z,0.77
2023-03-04T09:11:31.321Z,0.60
2023-03-04T09:14:35.650Z,0.70
2023-03-04T09:17:37.724Z,0.60
2023-03-04T09:20:39.401Z,0.70
2023-03-04T09:23:41.113Z,0.75
2023-03-04T09:26:42.624Z,0.70
2023-03-04T09:29:45.668Z,0.60
2023-03-04T09:32:47.327Z,0.90
2023-03-04T09:35:49.797Z,1.00
2023-03-04T09:38:51.477Z,0.90
2023-03-04T09:41:57.332Z,0.73
2023-03-04T09:44:59.042Z,0.80
2023-03-04T09:48:01.716Z,0.80
2023-03-04T09:51:09.054Z,0.70
2023-03-04T09:54:16.474Z,0.60
2023-03-04T09:57:24.426Z,0.80
2023-03-04T10:00:25.908Z,0.70
2023-03-04T10:03:56.369Z,0.65
2023-03-04T10:06:58.696Z,0.60
2023-03-04T10:10:04.692Z,1.00
2023-03-04T10:13:14.772Z,0.60
2023-03-04T10:16:21.393Z,0.90
2023-03-04T10:19:27.983Z,0.88
2023-03-04T10:25:41.601Z,0.90
2023-03-04T10:31:46.200Z,0.80
2023-03-04T10:34:47.955Z,0.70
2023-03-04T10:37:51.087Z,0.75
2023-03-04T10:40:52.661Z,0.80
2023-03-04T10:44:04.955Z,0.80
2023-03-04T10:47:10.126Z,0.77
2023-03-04T10:50:25.831Z,0.73
2023-03-04T10:53:37.619Z,0.80
2023-03-04T10:56:45.387Z,0.90
2023-03-04T10:59:58.704Z,0.80
2023-03-04T11:03:21.802Z,0.55
2023-03-04T11:06:23.368Z,0.80
2023-03-04T11:09:29.886Z,0.80
2023-03-04T11:16:01.142Z,0.70
2023-03-04T11:19:10.894Z,0.70
2023-03-04T11:22:18.213Z,0.70
2023-03-04T11:25:25.393Z,0.80
2023-03-04T11:29:01.003Z,0.85
2023-03-04T11:32:10.003Z,0.60
2023-03-04T11:35:21.799Z,0.90
2023-03-04T11:38:31.953Z,1.02
2023-03-04T11:41:35.798Z,0.47
2023-03-04T11:44:37.385Z,0.63
2023-03-04T11:48:12.905Z,0.65
2023-03-04T11:51:34.360Z,0.70
2023-03-04T11:54:53.836Z,0.80
2023-03-04T11:58:19.230Z,0.60
2023-03-04T12:01:44.447Z,1.05
2023-03-04T12:05:04.249Z,0.80
2023-03-04T12:08:36.875Z,0.73
2023-03-04T12:11:49.546Z,0.77
2023-03-04T12:15:01.547Z,0.70
2023-03-04T12:18:12.083Z,0.80
2023-03-04T12:21:24.049Z,0.82
2023-03-04T12:24:49.934Z,0.73
2023-03-04T12:28:21.169Z,0.77
2023-03-04T12:31:52.562Z,0.57
2023-03-04T12:35:19.500Z,0.77
2023-03-04T12:38:56.300Z,0.82
2023-03-04T12:42:21.295Z,0.50
2023-03-04T12:45:38.049Z,0.90
2023-03-04T12:48:42.189Z,0.70
2023-03-04T12:51:52.740Z,0.80
2023-03-04T12:55:00.013Z,0.70
2023-03-04T12:58:01.916Z,0.70
2023-03-04T13:01:16.785Z,0.70
2023-03-04T13:04:27.880Z,0.70
2023-03-04T13:07:49.802Z,0.75
2023-03-04T13:10:52.389Z,0.63
2023-03-04T13:14:07.453Z,0.80
2023-03-04T13:17:40.872Z,0.70
2023-03-04T13:20:43.660Z,0.60
2023-03-04T13:23:45.233Z,0.75
2023-03-04T13:26:46.940Z,0.70
2023-03-04T13:29:48.444Z,0.70
2023-03-04T13:32:49.913Z,0.75
2023-03-04T13:35:54.407Z,0.70
2023-03-04T13:39:00.570Z,0.90
2023-03-04T13:42:04.264Z,0.70
2023-03-04T13:45:34.395Z,0.70
2023-03-04T13:48:37.345Z,0.88
2023-03-04T13:51:43.034Z,0.80
2023-03-04T13:54:44.579Z,0.70
2023-03-04T13:57:50.952Z,0.70
2023-03-04T14:00:54.959Z,0.50
2023-03-04T14:03:56.533Z,0.60
2023-03-04T14:07:00.612Z,0.68
2023-03-04T14:10:08.315Z,0.63
2023-03-04T14:13:11.228Z,0.70
2023-03-04T14:16:18.959Z,0.60
2023-03-04T14:19:33.495Z,0.68
2023-03-04T14:22:41.572Z,0.80
2023-03-04T14:25:43.067Z,0.70
2023-03-04T14:28:50.293Z,0.60
2023-03-04T14:31:53.824Z,0.90
2023-03-04T14:35:01.412Z,0.77
2023-03-04T14:38:15.926Z,0.60
2023-03-04T14:41:22.589Z,0.73
2023-03-04T14:44:26.865Z,0.70
2023-03-04T14:47:41.321Z,0.63
2023-03-04T14:50:53.118Z,0.60
2023-03-04T14:53:56.246Z,0.70
2023-03-04T14:56:59.652Z,0.65
2023-03-04T15:00:19.909Z,0.60
2023-03-04T15:03:25.574Z,0.60
2023-03-04T15:06:30.165Z,0.70
2023-03-04T15:09:31.715Z,0.80
2023-03-04T15:12:37.625Z,0.77
2023-03-04T15:15:46.934Z,0.70
2023-03-04T15:19:06.209Z,0.60
2023-03-04T15:22:08.097Z,0.60
2023-03-04T15:25:15.177Z,0.82
2023-03-04T15:28:20.346Z,0.75
2023-03-04T15:31:25.733Z,0.77
2023-03-04T15:34:27.409Z,0.70
2023-03-04T15:37:29.519Z,1.10
2023-03-04T15:40:32.312Z,1.58
2023-03-04T15:43:33.801Z,1.48
2023-03-04T15:46:35.531Z,1.63
2023-03-04T15:49:37.077Z,1.30
2023-03-04T15:52:39.626Z,1.30
2023-03-04T15:55:44.863Z,1.17
2023-03-04T15:58:55.162Z,1.00
2023-03-04T16:01:56.638Z,1.10
2023-03-04T16:04:58.130Z,1.00
2023-03-04T16:07:59.604Z,1.20
2023-03-04T16:11:01.178Z,1.20
2023-03-04T16:14:02.668Z,1.15
2023-03-04T16:17:04.422Z,1.08
2023-03-04T16:20:06.421Z,1.30
2023-03-04T16:23:13.295Z,1.13
2023-03-04T16:26:20.869Z,0.90
2023-03-04T16:29:22.387Z,1.25
2023-03-04T16:32:24.842Z,1.10
2023-03-04T16:35:27.688Z,1.27
2023-03-04T16:38:34.118Z,1.17
2023-03-04T16:41:37.068Z,0.93
2023-03-04T16:44:38.621Z,0.90
2023-03-04T16:47:40.093Z,0.90
2023-03-04T16:50:41.815Z,1.00
2023-03-04T16:53:47.173Z,1.20
2023-03-04T16:56:48.664Z,1.00
2023-03-04T16:59:50.666Z,1.33
2023-03-04T17:03:01.603Z,1.00
2023-03-04T17:06:03.110Z,0.80
2023-03-04T17:09:09.139Z,1.10
2023-03-04T17:12:12.372Z,1.00
2023-03-04T17:15:14.781Z,1.30
2023-03-04T17:18:16.315Z,1.10
2023-03-04T17:21:23.758Z,1.25
2023-03-04T17:24:25.984Z,1.15
2023-03-04T17:27:27.446Z,1.08
2023-03-04T17:30:29.006Z,0.90
2023-03-04T17:33:30.519Z,1.05
2023-03-04T17:36:32.151Z,1.00
2023-03-04T17:39:33.712Z,1.08
2023-03-04T17:42:35.246Z,1.20
2023-03-04T17:45:43.894Z,1.08
2023-03-04T17:48:45.690Z,1.13
2023-03-04T17:51:47.178Z,0.93
2023-03-04T17:54:48.744Z,0.90
2023-03-04T17:57:52.816Z,1.00
2023-03-04T18:01:00.879Z,1.00
2023-03-04T18:04:02.828Z,0.90
2023-03-04T18:07:04.321Z,1.02
2023-03-04T18:10:06.399Z,0.80
2023-03-04T18:13:08.559Z,0.90
2023-03-04T18:16:11.922Z,0.98
2023-03-04T18:19:13.519Z,1.00
2023-03-04T18:22:15.206Z,0.90
2023-03-04T18:25:16.897Z,1.20
2023-03-04T18:28:18.668Z,0.85
2023-03-04T18:31:22.097Z,0.80
2023-03-04T18:34:23.583Z,0.90
2023-03-04T18:37:25.072Z,0.90
2023-03-04T18:40:28.498Z,0.80
2023-03-04T18:43:30.030Z,1.00
2023-03-04T18:46:31.496Z,0.90
2023-03-04T18:49:33.376Z,0.85
2023-03-04T18:52:36.091Z,1.20
2023-03-04T18:55:37.598Z,0.80
2023-03-04T18:58:42.739Z,0.90
2023-03-04T19:01:45.517Z,0.90
2023-03-04T19:04:49.163Z,1.10
2023-03-04T19:07:50.846Z,1.20
2023-03-04T19:10:52.393Z,1.00
2023-03-04T19:13:53.894Z,1.05
2023-03-04T19:16:55.503Z,1.00
2023-03-04T19:19:57.080Z,1.35
2023-03-04T19:22:58.642Z,1.20
2023-03-04T19:26:00.156Z,1.00
2023-03-04T19:29:01.617Z,1.15
2023-03-04T19:32:03.168Z,0.90
2023-03-04T19:35:05.071Z,0.90
2023-03-04T19:38:06.643Z,1.10
2023-03-04T19:41:10.851Z,1.02
2023-03-04T19:44:12.323Z,1.02
2023-03-04T19:47:13.814Z,1.05
2023-03-04T19:50:16.168Z,1.10
2023-03-04T19:53:18.666Z,1.10
2023-03-04T19:56:21.447Z,1.48
2023-03-04T19:59:22.896Z,1.10
2023-03-04T20:02:24.355Z,1.02
2023-03-04T20:05:25.857Z,0.90
2023-03-04T20:08:27.358Z,1.00
2023-03-04T20:11:29.775Z,0.93
2023-03-04T20:14:33.062Z,1.00
2023-03-04T20:17:34.607Z,1.25
2023-03-04T20:20:38.126Z,1.10
2023-03-04T20:23:39.622Z,0.90
2023-03-04T20:26:41.080Z,1.00
2023-03-04T20:29:42.666Z,1.10
2023-03-04T20:32:44.914Z,1.20
2023-03-04T20:35:46.422Z,1.00
2023-03-04T20:38:49.058Z,0.90
2023-03-04T20:41:50.527Z,0.80
2023-03-04T20:44:51.996Z,1.00
2023-03-04T20:47:53.529Z,1.00
2023-03-04T20:50:54.968Z,0.90
2023-03-04T20:53:57.070Z,0.98
2023-03-04T20:56:58.701Z,0.90
2023-03-04T21:00:00.218Z,0.80
2023-03-04T21:03:01.706Z,1.05
2023-03-04T21:06:04.628Z,1.00
2023-03-04T21:09:12.890Z,0.90
2023-03-04T21:12:14.620Z,0.90
2023-03-04T21:15:16.242Z,0.90
2023-03-04T21:18:17.719Z,0.90
2023-03-04T21:21:22.223Z,0.95
2023-03-04T21:24:26.579Z,0.90
2023-03-04T21:27:28.417Z,0.70
2023-03-04T21:30:29.897Z,1.00
2023-03-04T21:33:36.265Z,0.90
2023-03-04T21:36:37.742Z,0.80
2023-03-04T21:39:39.359Z,0.80
2023-03-04T21:42:40.876Z,0.77
2023-03-04T21:45:42.365Z,0.93
2023-03-04T21:48:44.809Z,0.93
2023-03-04T21:51:46.527Z,0.70
2023-03-04T21:54:48.488Z,0.80
2023-03-04T21:57:49.975Z,0.70
2023-03-04T22:00:52.155Z,0.90
2023-03-04T22:03:54.339Z,0.90
2023-03-04T22:06:55.906Z,0.70
2023-03-04T22:09:59.374Z,0.85
2023-03-04T22:13:00.852Z,0.90
2023-03-04T22:16:02.646Z,1.00
2023-03-04T22:19:04.443Z,0.70
2023-03-04T22:22:06.455Z,0.70
2023-03-04T22:25:08.532Z,0.82
2023-03-04T22:28:10.045Z,1.10
2023-03-04T22:31:19.768Z,0.65
2023-03-04T22:34:21.407Z,0.80
2023-03-04T22:37:22.912Z,0.88
2023-03-04T22:40:24.625Z,0.90
2023-03-04T22:43:26.119Z,0.90
2023-03-04T22:46:30.077Z,0.80
2023-03-04T22:49:33.113Z,0.82
2023-03-04T22:52:34.656Z,1.10
2023-03-04T22:55:36.264Z,0.90
2023-03-04T22:58:38.459Z,0.73
2023-03-04T23:01:40.316Z,0.80
2023-03-04T23:04:42.994Z,0.80
2023-03-04T23:07:44.629Z,0.90
2023-03-04T23:10:46.118Z,0.73
2023-03-04T23:13:49.154Z,0.70
2023-03-04T23:16:50.850Z,0.88
2023-03-04T23:19:52.414Z,0.80
2023-03-04T23:22:53.940Z,0.80
2023-03-04T23:25:55.465Z,0.80
2023-03-04T23:28:57.157Z,0.60
2023-03-04T23:31:58.942Z,0.70
2023-03-04T23:35:00.531Z,0.80
2023-03-04T23:38:02.043Z,0.80
2023-03-04T23:41:03.646Z,0.80
2023-03-04T23:44:06.077Z,0.75
2023-03-04T23:47:07.813Z,0.60
2023-03-04T23:50:10.949Z,0.85
2023-03-04T23:53:12.423Z,0.77
2023-03-04T23:56:17.624Z,0.82
2023-03-04T23:59:19.080Z,0.70
